Time;durP1;ratioP1;P1;durP2;ratioP2;P2;SDS_P1;SDS_P2;PMS_P1;PMS_P2;Temp;Humidity;BMP_temperature;BMP_pressure;BME280_temperature;BME280_humidity;BME280_pressure;Samples;Min_cycle;Max_cycle;Signal;HPM_P1;HPM_P2
2023/10/23 00:01:48;;;;;;;5.30;1.70;;;;;;;;;;6151278;23;20368;-96
2023/10/23 00:04:17;;;;;;;1.23;1.13;;;;;;;;;;6155531;23;20443;-96
2023/10/23 00:06:43;;;;;;;1.83;1.33;;;;;;;;;;6149277;23;20381;-95
2023/10/23 00:09:12;;;;;;;1.63;1.10;;;;;;;;;;6155932;23;20415;-94
2023/10/23 00:11:38;;;;;;;2.77;0.90;;;;;;;;;;6153101;23;20383;-96
2023/10/23 00:14:07;;;;;;;3.70;1.30;;;;;;;;;;6159219;23;20422;-96
2023/10/23 00:16:36;;;;;;;1.37;1.20;;;;;;;;;;6155549;23;20379;-94
2023/10/23 00:19:02;;;;;;;3.20;1.10;;;;;;;;;;6152614;23;20384;-95
2023/10/23 00:21:31;;;;;;;4.53;1.83;;;;;;;;;;6150762;23;20368;-96
2023/10/23 00:23:58;;;;;;;10.97;1.63;;;;;;;;;;6151986;23;20388;-95
2023/10/23 00:26:24;;;;;;;3.63;1.37;;;;;;;;;;6154576;23;20388;-96
2023/10/23 00:28:58;;;;;;;3.13;1.40;;;;;;;;;;6152217;23;20419;-95
2023/10/23 00:31:24;;;;;;;6.73;2.07;;;;;;;;;;6151374;23;20934;-95
2023/10/23 00:33:50;;;;;;;2.10;1.67;;;;;;;;;;6152383;23;20392;-96
2023/10/23 00:36:19;;;;;;;3.93;1.50;;;;;;;;;;6178081;23;20404;-96
2023/10/23 00:38:45;;;;;;;3.63;1.53;;;;;;;;;;6153126;23;20848;-95
2023/10/23 00:41:14;;;;;;;4.13;1.50;;;;;;;;;;6154846;23;20396;-95
2023/10/23 00:43:40;;;;;;;3.67;1.40;;;;;;;;;;6152630;23;20387;-96
2023/10/23 00:46:15;;;;;;;2.40;1.03;;;;;;;;;;6153731;23;20508;-96
2023/10/23 00:48:41;;;;;;;4.10;1.60;;;;;;;;;;6152644;23;20375;-95
2023/10/23 00:51:07;;;;;;;1.83;1.30;;;;;;;;;;6154651;23;20432;-95
2023/10/23 00:53:36;;;;;;;2.50;1.63;;;;;;;;;;6152137;23;20389;-95
2023/10/23 00:56:04;;;;;;;1.63;1.40;;;;;;;;;;6151695;23;20372;-96
2023/10/23 00:58:32;;;;;;;5.90;1.50;;;;;;;;;;6153146;23;20447;-95
2023/10/23 01:00:58;;;;;;;4.70;1.70;;;;;;;;;;6129771;23;20384;-95
2023/10/23 01:03:29;;;;;;;1.97;1.47;;;;;;;;;;6152644;23;20384;-96
2023/10/23 01:05:55;;;;;;;2.97;1.70;;;;;;;;;;6119506;23;20394;-94
2023/10/23 01:08:23;;;;;;;4.37;1.40;;;;;;;;;;6093595;23;20413;-94
2023/10/23 01:10:49;;;;;;;2.70;1.40;;;;;;;;;;6096348;23;20444;-94
2023/10/23 01:13:16;;;;;;;2.43;1.60;;;;;;;;;;6094149;23;20400;-96
2023/10/23 01:15:44;;;;;;;1.87;1.13;;;;;;;;;;6118964;23;20397;-96
2023/10/23 01:18:12;;;;;;;2.53;1.00;;;;;;;;;;6095547;23;20401;-95
2023/10/23 01:20:38;;;;;;;1.57;1.30;;;;;;;;;;6142222;23;20390;-95
2023/10/23 01:23:05;;;;;;;1.77;1.30;;;;;;;;;;6092410;23;20546;-96
2023/10/23 01:25:31;;;;;;;3.37;1.63;;;;;;;;;;6094843;23;20393;-96
2023/10/23 01:27:57;;;;;;;1.40;1.00;;;;;;;;;;6092072;23;20428;-93
2023/10/23 01:30:23;;;;;;;4.23;1.10;;;;;;;;;;6094474;23;20446;-95
2023/10/23 01:32:49;;;;;;;1.47;1.10;;;;;;;;;;6092485;23;20420;-96
2023/10/23 01:35:15;;;;;;;1.73;1.30;;;;;;;;;;6094829;23;20390;-96
2023/10/23 01:37:44;;;;;;;2.23;1.20;;;;;;;;;;6091815;23;20472;-95
2023/10/23 01:40:11;;;;;;;3.20;1.27;;;;;;;;;;6094410;23;20510;-95
2023/10/23 01:42:40;;;;;;;1.73;1.20;;;;;;;;;;6106936;23;20427;-95
2023/10/23 01:45:09;;;;;;;2.47;1.80;;;;;;;;;;6155937;23;20403;-94
2023/10/23 01:47:35;;;;;;;2.43;1.40;;;;;;;;;;6153720;23;20705;-95
2023/10/23 01:50:01;;;;;;;1.33;1.17;;;;;;;;;;6180610;23;20456;-93
2023/10/23 01:52:27;;;;;;;1.43;1.23;;;;;;;;;;6236605;23;20479;-95
2023/10/23 01:54:58;;;;;;;3.27;1.50;;;;;;;;;;6237764;23;20394;-95
2023/10/23 01:57:24;;;;;;;2.43;1.80;;;;;;;;;;6231789;23;20410;-92
2023/10/23 01:59:50;;;;;;;3.73;1.83;;;;;;;;;;6226758;23;20385;-91
2023/10/23 02:02:16;;;;;;;2.27;1.50;;;;;;;;;;6226910;23;20397;-90
2023/10/23 02:04:42;;;;;;;1.53;1.17;;;;;;;;;;6230078;23;20393;-91
2023/10/23 02:07:08;;;;;;;3.03;1.50;;;;;;;;;;6225268;23;20422;-91
2023/10/23 02:09:34;;;;;;;2.20;1.50;;;;;;;;;;6227184;23;20433;-91
2023/10/23 02:12:01;;;;;;;1.33;1.07;;;;;;;;;;6226571;22;20382;-91
2023/10/23 02:14:27;;;;;;;2.90;1.30;;;;;;;;;;6229804;23;20460;-91
2023/10/23 02:16:53;;;;;;;1.43;1.30;;;;;;;;;;6224762;23;20386;-90
2023/10/23 02:19:19;;;;;;;3.63;1.63;;;;;;;;;;6226650;23;20390;-91
2023/10/23 02:21:51;;;;;;;1.50;1.30;;;;;;;;;;6228005;23;20382;-91
2023/10/23 02:24:19;;;;;;;1.70;1.60;;;;;;;;;;6238020;23;20371;-90
2023/10/23 02:26:46;;;;;;;1.73;1.30;;;;;;;;;;6232767;23;20382;-92
2023/10/23 02:29:12;;;;;;;3.53;1.90;;;;;;;;;;6228419;23;20378;-91
2023/10/23 02:31:38;;;;;;;1.93;1.77;;;;;;;;;;6228788;23;20680;-92
2023/10/23 02:34:05;;;;;;;3.43;2.03;;;;;;;;;;6229026;23;20385;-92
2023/10/23 02:36:32;;;;;;;1.83;1.70;;;;;;;;;;6230177;23;20864;-91
2023/10/23 02:38:59;;;;;;;2.10;1.70;;;;;;;;;;6230872;23;20377;-91
2023/10/23 02:41:30;;;;;;;2.13;1.70;;;;;;;;;;6228988;23;20439;-92
2023/10/23 02:43:56;;;;;;;2.93;1.87;;;;;;;;;;6229934;23;20378;-91
2023/10/23 02:46:22;;;;;;;2.10;1.60;;;;;;;;;;6230008;23;20382;-91
2023/10/23 02:48:48;;;;;;;4.30;2.43;;;;;;;;;;6231511;23;20521;-91
2023/10/23 02:51:14;;;;;;;1.53;1.43;;;;;;;;;;6227730;23;20433;-91
2023/10/23 02:53:40;;;;;;;4.00;1.73;;;;;;;;;;6230232;23;20382;-91
2023/10/23 02:56:33;;;;;;;2.37;1.50;;;;;;;;;;6228291;23;20370;-91
2023/10/23 02:58:59;;;;;;;1.60;1.03;;;;;;;;;;6260062;23;20363;-92
2023/10/23 03:01:25;;;;;;;1.73;1.40;;;;;;;;;;6228846;23;20381;-91
2023/10/23 03:03:51;;;;;;;3.50;1.40;;;;;;;;;;6197562;23;20465;-91
2023/10/23 03:06:17;;;;;;;3.83;1.47;;;;;;;;;;6172755;23;21328;-92
2023/10/23 03:08:43;;;;;;;2.93;1.63;;;;;;;;;;6172151;23;20382;-90
2023/10/23 03:11:09;;;;;;;1.63;1.53;;;;;;;;;;6171529;23;20429;-93
2023/10/23 03:13:35;;;;;;;1.53;1.37;;;;;;;;;;6174832;23;20375;-91
2023/10/23 03:16:01;;;;;;;2.80;1.63;;;;;;;;;;6171792;23;20386;-91
2023/10/23 03:18:28;;;;;;;3.67;1.90;;;;;;;;;;6178704;23;20546;-91
2023/10/23 03:20:59;;;;;;;3.53;1.40;;;;;;;;;;6170875;23;20406;-91
2023/10/23 03:23:25;;;;;;;3.10;1.93;;;;;;;;;;6171746;23;20855;-91
2023/10/23 03:25:51;;;;;;;1.47;1.37;;;;;;;;;;6170738;23;20422;-91
2023/10/23 03:28:17;;;;;;;5.23;1.40;;;;;;;;;;6180824;23;20375;-91
2023/10/23 03:30:43;;;;;;;1.60;1.50;;;;;;;;;;6171328;23;20431;-91
2023/10/23 03:33:10;;;;;;;2.83;1.70;;;;;;;;;;6174252;23;20874;-91
2023/10/23 03:35:41;;;;;;;2.00;1.10;;;;;;;;;;6200825;23;20865;-91
2023/10/23 03:38:08;;;;;;;1.10;1.00;;;;;;;;;;6230529;23;20374;-91
2023/10/23 03:40:34;;;;;;;1.50;1.30;;;;;;;;;;6232361;23;20776;-91
2023/10/23 03:43:01;;;;;;;3.87;1.57;;;;;;;;;;6228704;23;20358;-90
2023/10/23 03:45:27;;;;;;;3.17;1.60;;;;;;;;;;6233919;23;20781;-89
2023/10/23 03:47:53;;;;;;;4.83;2.13;;;;;;;;;;6228212;23;20457;-92
2023/10/23 03:50:19;;;;;;;3.13;1.87;;;;;;;;;;6234334;23;20442;-91
2023/10/23 03:52:45;;;;;;;2.20;1.53;;;;;;;;;;6232672;23;20398;-90
2023/10/23 03:55:11;;;;;;;5.77;1.97;;;;;;;;;;6230363;23;20991;-90
2023/10/23 03:57:37;;;;;;;6.00;1.77;;;;;;;;;;6232188;22;20375;-91
2023/10/23 04:00:03;;;;;;;2.37;1.57;;;;;;;;;;6229018;23;20392;-91
2023/10/23 04:02:31;;;;;;;3.27;2.13;;;;;;;;;;6259327;23;20347;-90
2023/10/23 04:04:57;;;;;;;4.30;2.60;;;;;;;;;;6227601;23;20440;-92
2023/10/23 04:07:23;;;;;;;1.77;1.30;;;;;;;;;;6227377;23;20389;-91
2023/10/23 04:09:50;;;;;;;1.87;1.73;;;;;;;;;;6263929;22;20398;-95
2023/10/23 04:12:16;;;;;;;4.47;1.73;;;;;;;;;;6238098;23;20374;-94
2023/10/23 04:14:46;;;;;;;7.90;2.13;;;;;;;;;;6237771;23;20398;-93
2023/10/23 04:17:12;;;;;;;1.43;1.33;;;;;;;;;;6240582;23;20386;-95
2023/10/23 04:19:39;;;;;;;2.40;1.77;;;;;;;;;;6239905;23;20421;-95
2023/10/23 04:22:05;;;;;;;3.90;1.67;;;;;;;;;;6200196;23;20815;-95
2023/10/23 04:24:31;;;;;;;8.77;1.67;;;;;;;;;;6118672;23;20720;-96
2023/10/23 04:26:57;;;;;;;3.93;1.70;;;;;;;;;;6117645;23;20373;-95
2023/10/23 04:29:23;;;;;;;2.80;1.87;;;;;;;;;;6118046;23;20417;-96
2023/10/23 04:31:49;;;;;;;4.50;1.53;;;;;;;;;;6117808;23;20382;-95
2023/10/23 04:34:15;;;;;;;1.40;1.23;;;;;;;;;;6122099;23;20382;-95
2023/10/23 04:36:41;;;;;;;1.43;1.33;;;;;;;;;;6119656;23;20478;-95
2023/10/23 04:39:08;;;;;;;5.30;1.40;;;;;;;;;;6118990;23;20400;-95
2023/10/23 04:41:36;;;;;;;2.10;1.70;;;;;;;;;;6118300;23;20398;-96
2023/10/23 04:44:03;;;;;;;5.90;1.40;;;;;;;;;;6121079;23;20378;-96
2023/10/23 04:46:38;;;;;;;5.20;1.90;;;;;;;;;;6119687;23;20396;-95
2023/10/23 04:49:16;;;;;;;4.80;2.50;;;;;;;;;;6122702;23;20397;-95
2023/10/23 04:51:54;;;;;;;3.63;2.70;;;;;;;;;;6120716;23;20410;-94
2023/10/23 04:54:25;;;;;;;3.07;2.77;;;;;;;;;;6205927;23;20439;-94
2023/10/23 04:56:55;;;;;;;3.93;2.60;;;;;;;;;;6209249;23;20452;-94
2023/10/23 04:59:23;;;;;;;3.57;2.03;;;;;;;;;;6154440;23;20383;-95
2023/10/23 05:01:50;;;;;;;8.00;2.67;;;;;;;;;;6148345;23;20427;-96
2023/10/23 05:06:55;;;;;;;5.00;3.57;;;;;;;;;;6233130;22;21706;-94
2023/10/23 05:09:24;;;;;;;4.87;3.40;;;;;;;;;;6185709;23;20410;-95
2023/10/23 05:11:51;;;;;;;5.37;3.00;;;;;;;;;;6211859;23;20367;-93
2023/10/23 05:14:22;;;;;;;5.27;3.80;;;;;;;;;;6188940;22;20434;-94
2023/10/23 05:16:48;;;;;;;4.97;3.43;;;;;;;;;;6208877;22;20477;-96
2023/10/23 05:19:18;;;;;;;6.47;3.30;;;;;;;;;;6234353;23;20386;-94
2023/10/23 05:24:21;;;;;;;5.87;3.80;;;;;;;;;;6261296;22;20405;-95
2023/10/23 05:26:48;;;;;;;4.77;3.57;;;;;;;;;;6240717;23;20389;-95
2023/10/23 05:29:14;;;;;;;10.70;2.97;;;;;;;;;;6214715;23;20421;-94
2023/10/23 05:31:40;;;;;;;3.53;1.93;;;;;;;;;;6214735;23;20418;-96
2023/10/23 05:34:06;;;;;;;2.80;2.50;;;;;;;;;;6206372;23;20382;-93
2023/10/23 05:36:33;;;;;;;6.13;2.30;;;;;;;;;;6181190;23;20451;-93
2023/10/23 05:38:59;;;;;;;5.10;3.43;;;;;;;;;;6204836;23;20382;-94
2023/10/23 05:41:26;;;;;;;4.23;2.30;;;;;;;;;;6177831;23;20390;-94
2023/10/23 05:43:52;;;;;;;8.33;3.30;;;;;;;;;;6204158;23;20406;-95
2023/10/23 05:46:20;;;;;;;6.87;3.30;;;;;;;;;;6205327;23;20454;-94
2023/10/23 05:48:48;;;;;;;3.50;2.43;;;;;;;;;;6207973;23;20390;-92
2023/10/23 05:51:14;;;;;;;3.00;2.70;;;;;;;;;;6231025;23;20434;-93
2023/10/23 05:53:41;;;;;;;5.13;3.20;;;;;;;;;;6143818;23;20388;-94
2023/10/23 05:56:08;;;;;;;2.50;2.30;;;;;;;;;;6142004;23;20384;-93
2023/10/23 05:58:36;;;;;;;11.13;2.97;;;;;;;;;;6169248;23;20385;-91
2023/10/23 06:01:09;;;;;;;3.07;2.20;;;;;;;;;;6141918;23;20388;-93
2023/10/23 06:03:38;;;;;;;5.00;2.60;;;;;;;;;;6144292;23;20372;-94
2023/10/23 06:06:05;;;;;;;3.60;2.80;;;;;;;;;;6143673;23;20381;-93
2023/10/23 06:11:10;;;;;;;5.43;2.40;;;;;;;;;;6240738;22;20434;-93
2023/10/23 06:13:37;;;;;;;4.37;2.93;;;;;;;;;;6199159;23;20382;-92
2023/10/23 06:16:07;;;;;;;5.20;2.13;;;;;;;;;;6198377;23;21110;-94
2023/10/23 06:18:33;;;;;;;3.33;2.80;;;;;;;;;;6199949;23;20371;-94
2023/10/23 06:21:03;;;;;;;3.80;2.30;;;;;;;;;;6200454;23;20908;-94
2023/10/23 06:23:29;;;;;;;3.23;2.23;;;;;;;;;;6201357;23;20399;-93
2023/10/23 06:25:55;;;;;;;3.67;2.97;;;;;;;;;;6199157;23;20375;-94
2023/10/23 06:28:21;;;;;;;5.03;2.70;;;;;;;;;;6202554;23;20379;-96
2023/10/23 06:30:47;;;;;;;2.90;2.60;;;;;;;;;;6202658;23;20992;-92
2023/10/23 06:33:13;;;;;;;2.93;2.70;;;;;;;;;;6201466;23;20383;-93
2023/10/23 06:35:41;;;;;;;7.20;2.80;;;;;;;;;;6204429;23;20382;-93
2023/10/23 06:38:09;;;;;;;3.20;2.57;;;;;;;;;;6208368;23;20384;-96
2023/10/23 06:43:11;;;;;;;2.97;2.57;;;;;;;;;;6204391;23;20447;-95
2023/10/23 06:45:38;;;;;;;2.43;2.20;;;;;;;;;;6176308;23;20490;-93
2023/10/23 07:03:43;;;;;;;3.20;2.40;;;;;;;;;;6235463;22;20454;-95
2023/10/23 07:08:47;;;;;;;3.00;2.50;;;;;;;;;;6264694;22;20425;-94
2023/10/23 07:14:14;;;;;;;2.13;1.87;;;;;;;;;;6216151;23;20413;-93
2023/10/23 07:16:40;;;;;;;9.80;2.67;;;;;;;;;;6210894;23;20394;-95
2023/10/23 07:19:06;;;;;;;3.30;2.27;;;;;;;;;;6183567;23;20493;-95
2023/10/23 07:21:32;;;;;;;4.20;2.90;;;;;;;;;;6183083;23;20410;-95
2023/10/23 07:23:59;;;;;;;6.60;2.33;;;;;;;;;;6179867;23;20398;-95
2023/10/23 07:26:25;;;;;;;10.57;2.77;;;;;;;;;;6185278;23;20442;-95
2023/10/23 07:28:53;;;;;;;5.20;2.30;;;;;;;;;;6182534;23;20395;-92
2023/10/23 07:31:26;;;;;;;5.27;2.57;;;;;;;;;;6177170;23;20428;-93
2023/10/23 07:33:52;;;;;;;6.07;3.10;;;;;;;;;;6200578;23;20436;-95
2023/10/23 07:36:18;;;;;;;4.30;2.93;;;;;;;;;;6177563;23;20416;-92
2023/10/23 07:38:45;;;;;;;2.33;2.13;;;;;;;;;;6176321;23;20392;-94
2023/10/23 07:43:46;;;;;;;5.83;3.17;;;;;;;;;;6233616;22;20458;-93
2023/10/23 07:46:12;;;;;;;4.70;3.33;;;;;;;;;;6199668;23;20422;-94
2023/10/23 07:48:38;;;;;;;4.40;3.97;;;;;;;;;;6205501;23;20375;-93
2023/10/23 07:51:04;;;;;;;5.90;3.80;;;;;;;;;;6200183;23;20473;-95
2023/10/23 07:53:35;;;;;;;5.07;3.90;;;;;;;;;;6204356;23;20379;-95
2023/10/23 07:56:03;;;;;;;8.40;4.30;;;;;;;;;;6224611;23;20372;-96
2023/10/23 07:58:32;;;;;;;5.90;3.70;;;;;;;;;;6207289;23;20467;-94
2023/10/23 08:01:04;;;;;;;3.67;3.30;;;;;;;;;;6225388;23;20383;-91
2023/10/23 08:03:37;;;;;;;6.60;4.00;;;;;;;;;;6205105;23;20666;-95
2023/10/23 08:06:05;;;;;;;10.13;4.70;;;;;;;;;;6232310;23;20438;-95
2023/10/23 08:08:38;;;;;;;10.30;3.93;;;;;;;;;;6209576;23;20418;-95
2023/10/23 08:11:04;;;;;;;4.83;4.10;;;;;;;;;;6229424;23;20415;-95
2023/10/23 08:18:43;;;;;;;3.70;3.30;;;;;;;;;;6251028;22;20419;-92
2023/10/23 08:21:10;;;;;;;3.53;2.50;;;;;;;;;;6215347;23;20393;-95
2023/10/23 08:23:36;;;;;;;4.43;3.70;;;;;;;;;;6211900;22;20378;-94
2023/10/23 08:26:03;;;;;;;11.57;4.10;;;;;;;;;;6215268;22;20413;-94
2023/10/23 08:28:32;;;;;;;7.40;4.10;;;;;;;;;;6212824;23;20397;-94
2023/10/23 08:30:58;;;;;;;5.23;3.53;;;;;;;;;;6213446;23;20418;-91
2023/10/23 08:33:27;;;;;;;4.57;3.47;;;;;;;;;;6211121;23;20394;-93
2023/10/23 08:35:53;;;;;;;9.30;4.10;;;;;;;;;;6240201;23;20373;-93
2023/10/23 08:38:20;;;;;;;4.33;3.73;;;;;;;;;;6212916;22;20385;-94
2023/10/23 08:40:46;;;;;;;11.97;3.40;;;;;;;;;;6238953;23;20370;-93
2023/10/23 08:43:12;;;;;;;6.20;4.00;;;;;;;;;;6214018;23;20402;-93
2023/10/23 08:48:17;;;;;;;6.07;4.33;;;;;;;;;;6212359;22;20446;-94
2023/10/23 08:50:46;;;;;;;12.03;3.33;;;;;;;;;;6158565;23;20503;-93
2023/10/23 08:53:12;;;;;;;9.70;3.67;;;;;;;;;;6156075;23;20458;-93
2023/10/23 08:55:44;;;;;;;14.43;3.37;;;;;;;;;;6157763;23;20407;-92
2023/10/23 08:58:10;;;;;;;10.43;3.73;;;;;;;;;;6179811;23;20396;-94
2023/10/23 09:00:36;;;;;;;11.73;3.40;;;;;;;;;;6134650;23;20416;-95
2023/10/23 09:03:06;;;;;;;16.90;4.40;;;;;;;;;;6155461;23;20724;-95
2023/10/23 09:05:33;;;;;;;9.53;3.93;;;;;;;;;;6157058;23;20392;-96
2023/10/23 09:07:59;;;;;;;8.27;3.47;;;;;;;;;;6157573;23;20379;-93
2023/10/23 09:10:29;;;;;;;5.67;3.00;;;;;;;;;;6156548;23;20420;-91
2023/10/23 09:12:58;;;;;;;4.00;2.33;;;;;;;;;;6153131;23;20380;-93
2023/10/23 09:15:34;;;;;;;6.00;3.20;;;;;;;;;;6182709;23;20485;-92
2023/10/23 09:18:02;;;;;;;9.37;3.40;;;;;;;;;;6177634;23;20393;-93
2023/10/23 09:20:29;;;;;;;4.70;2.93;;;;;;;;;;6159478;23;20395;-93
2023/10/23 09:22:55;;;;;;;4.20;3.13;;;;;;;;;;6171426;23;20391;-93
2023/10/23 09:25:22;;;;;;;9.23;3.23;;;;;;;;;;6153738;23;20381;-94
2023/10/23 09:27:48;;;;;;;5.43;3.30;;;;;;;;;;6148692;23;20403;-94
2023/10/23 09:30:23;;;;;;;3.90;2.77;;;;;;;;;;6149741;23;20411;-94
2023/10/23 09:32:53;;;;;;;6.60;2.80;;;;;;;;;;6150441;23;20402;-93
2023/10/23 09:35:21;;;;;;;6.43;2.30;;;;;;;;;;6146560;23;20376;-93
2023/10/23 09:37:50;;;;;;;4.20;2.33;;;;;;;;;;6175565;23;20368;-93
2023/10/23 09:40:18;;;;;;;4.40;2.10;;;;;;;;;;6147418;23;20386;-93
2023/10/23 09:42:44;;;;;;;5.53;3.20;;;;;;;;;;6141486;23;21010;-94
2023/10/23 09:45:23;;;;;;;4.03;2.67;;;;;;;;;;6137902;23;20854;-93
2023/10/23 09:47:49;;;;;;;6.33;4.70;;;;;;;;;;6152677;23;20411;-94
2023/10/23 09:50:16;;;;;;;3.77;3.00;;;;;;;;;;6169632;23;20428;-95
2023/10/23 09:52:42;;;;;;;3.80;3.00;;;;;;;;;;6108541;23;20454;-93
2023/10/23 09:55:08;;;;;;;3.00;2.70;;;;;;;;;;6056304;23;20391;-94
2023/10/23 09:57:37;;;;;;;5.47;3.10;;;;;;;;;;6060286;23;20370;-94
2023/10/23 10:00:13;;;;;;;5.30;2.67;;;;;;;;;;6055750;23;20462;-93
2023/10/23 10:02:41;;;;;;;6.00;3.40;;;;;;;;;;6084893;23;20439;-93
2023/10/23 10:05:08;;;;;;;6.27;2.63;;;;;;;;;;6054915;23;20374;-92
2023/10/23 10:07:38;;;;;;;5.37;3.07;;;;;;;;;;6056423;23;20378;-93
2023/10/23 10:10:05;;;;;;;3.17;2.10;;;;;;;;;;6107903;23;20481;-92
2023/10/23 10:12:37;;;;;;;2.50;2.27;;;;;;;;;;6060925;23;20394;-92
2023/10/23 10:15:03;;;;;;;8.00;3.10;;;;;;;;;;6086117;23;20370;-92
2023/10/23 10:17:30;;;;;;;2.90;2.13;;;;;;;;;;6089483;23;20929;-91
2023/10/23 10:19:56;;;;;;;2.50;2.30;;;;;;;;;;6087475;23;20390;-93
2023/10/23 10:22:34;;;;;;;4.20;2.67;;;;;;;;;;6098851;23;20394;-93
2023/10/23 10:25:00;;;;;;;6.80;2.40;;;;;;;;;;6170548;23;20380;-93
2023/10/23 10:27:26;;;;;;;5.27;2.97;;;;;;;;;;6173815;23;20417;-94
2023/10/23 10:29:52;;;;;;;3.83;2.40;;;;;;;;;;6167862;23;20427;-94
2023/10/23 10:32:24;;;;;;;3.10;2.20;;;;;;;;;;6172398;23;20875;-94
2023/10/23 10:34:50;;;;;;;3.80;2.83;;;;;;;;;;6196330;23;20404;-91
2023/10/23 10:37:16;;;;;;;3.53;2.90;;;;;;;;;;6193619;23;20388;-90
2023/10/23 10:39:52;;;;;;;4.50;2.97;;;;;;;;;;6170835;23;20403;-94
2023/10/23 10:42:18;;;;;;;6.30;4.10;;;;;;;;;;6198074;23;20382;-93
2023/10/23 10:45:14;;;;;;;5.10;3.60;;;;;;;;;;6173015;23;20376;-95
2023/10/23 10:47:54;;;;;;;6.40;4.50;;;;;;;;;;6203271;23;20416;-95
2023/10/23 10:50:35;;;;;;;4.47;4.03;;;;;;;;;;6177796;23;20423;-96
2023/10/23 10:53:02;;;;;;;4.90;3.20;;;;;;;;;;6183620;23;20396;-94
2023/10/23 10:55:29;;;;;;;6.10;4.00;;;;;;;;;;6180374;23;20463;-92
2023/10/23 10:57:56;;;;;;;5.03;4.00;;;;;;;;;;6207883;23;20359;-95
2023/10/23 11:00:36;;;;;;;6.63;4.50;;;;;;;;;;6205720;23;20431;-94
2023/10/23 11:03:03;;;;;;;8.03;4.10;;;;;;;;;;6204660;23;20419;-94
2023/10/23 11:05:35;;;;;;;6.83;4.93;;;;;;;;;;6177327;23;20879;-91
2023/10/23 11:08:03;;;;;;;6.90;4.40;;;;;;;;;;6176959;23;20376;-92
2023/10/23 11:10:29;;;;;;;5.23;4.70;;;;;;;;;;6178801;23;20432;-95
2023/10/23 11:12:55;;;;;;;5.60;5.10;;;;;;;;;;6145978;23;20399;-95
2023/10/23 11:15:22;;;;;;;5.93;5.33;;;;;;;;;;6125555;23;20381;-94
2023/10/23 11:20:41;;;;;;;6.67;5.60;;;;;;;;;;6153524;23;20468;-94
2023/10/23 11:23:07;;;;;;;8.87;4.80;;;;;;;;;;6119520;23;20384;-94
2023/10/23 11:25:34;;;;;;;7.10;4.13;;;;;;;;;;6124277;23;20387;-94
2023/10/23 11:28:00;;;;;;;10.30;5.77;;;;;;;;;;6119366;23;20396;-94
2023/10/23 11:30:27;;;;;;;17.43;7.10;;;;;;;;;;6121153;23;20750;-94
2023/10/23 11:32:53;;;;;;;15.77;8.10;;;;;;;;;;6119686;23;20404;-93
2023/10/23 11:35:19;;;;;;;8.07;4.30;;;;;;;;;;6060327;23;20395;-94
2023/10/23 11:37:47;;;;;;;4.60;4.17;;;;;;;;;;6055093;23;20379;-95
2023/10/23 11:40:13;;;;;;;6.03;4.30;;;;;;;;;;6052449;23;20414;-94
2023/10/23 11:42:43;;;;;;;6.10;3.90;;;;;;;;;;6050943;23;20382;-93
2023/10/23 11:45:11;;;;;;;5.33;3.70;;;;;;;;;;6113231;23;20378;-95
2023/10/23 11:47:40;;;;;;;7.70;4.13;;;;;;;;;;6090112;23;20382;-95
2023/10/23 11:50:15;;;;;;;9.80;4.30;;;;;;;;;;6116205;23;20414;-95
2023/10/23 11:52:42;;;;;;;5.50;3.97;;;;;;;;;;6089818;23;20386;-92
2023/10/23 11:55:15;;;;;;;3.43;3.13;;;;;;;;;;6096667;23;20377;-94
2023/10/23 11:57:47;;;;;;;7.67;4.70;;;;;;;;;;6088938;23;20386;-95
2023/10/23 12:00:13;;;;;;;4.70;4.20;;;;;;;;;;6091076;23;20389;-93
2023/10/23 12:02:51;;;;;;;5.00;4.17;;;;;;;;;;6090256;23;20484;-93
2023/10/23 12:05:18;;;;;;;5.90;4.10;;;;;;;;;;6118207;23;20867;-94
2023/10/23 12:07:47;;;;;;;6.80;3.97;;;;;;;;;;6089602;23;20472;-93
2023/10/23 12:10:13;;;;;;;12.30;5.47;;;;;;;;;;6086241;23;21019;-95
2023/10/23 12:12:42;;;;;;;8.60;4.40;;;;;;;;;;6119730;23;20947;-94
2023/10/23 12:15:09;;;;;;;3.73;3.33;;;;;;;;;;6172321;23;20399;-95
2023/10/23 12:17:35;;;;;;;13.80;4.33;;;;;;;;;;6174633;23;20395;-95
2023/10/23 12:20:07;;;;;;;11.57;5.53;;;;;;;;;;6173590;23;20388;-95
2023/10/23 12:22:36;;;;;;;9.57;4.70;;;;;;;;;;6177453;23;20423;-94
2023/10/23 12:25:04;;;;;;;7.30;5.60;;;;;;;;;;6177095;23;20380;-94
2023/10/23 12:32:47;;;;;;;9.03;4.20;;;;;;;;;;6254961;22;20441;-93
2023/10/23 12:35:14;;;;;;;6.67;4.20;;;;;;;;;;6265004;23;20409;-95
2023/10/23 12:37:43;;;;;;;4.80;3.43;;;;;;;;;;6214577;23;20394;-93
2023/10/23 12:40:10;;;;;;;9.80;4.63;;;;;;;;;;6266358;22;20378;-95
2023/10/23 12:42:41;;;;;;;7.83;3.27;;;;;;;;;;6214172;23;20413;-94
2023/10/23 12:45:13;;;;;;;8.10;4.23;;;;;;;;;;6215083;23;20406;-95
2023/10/23 12:47:39;;;;;;;7.63;3.90;;;;;;;;;;6238073;23;20386;-93
2023/10/23 12:50:09;;;;;;;5.30;3.67;;;;;;;;;;6212821;23;20421;-95
2023/10/23 12:52:36;;;;;;;3.83;3.40;;;;;;;;;;6097745;23;20409;-94
2023/10/23 12:55:05;;;;;;;6.60;3.80;;;;;;;;;;6144656;23;20381;-93
2023/10/23 12:57:31;;;;;;;10.50;4.43;;;;;;;;;;6116206;23;20386;-94
2023/10/23 12:59:57;;;;;;;4.30;3.63;;;;;;;;;;6088135;23;20396;-94
2023/10/23 13:02:23;;;;;;;3.83;3.40;;;;;;;;;;6094037;23;20382;-93
2023/10/23 13:04:49;;;;;;;3.67;3.13;;;;;;;;;;6092368;23;20390;-94
2023/10/23 13:07:17;;;;;;;7.30;3.27;;;;;;;;;;6090596;23;20458;-92
2023/10/23 13:09:46;;;;;;;6.03;3.77;;;;;;;;;;6094090;23;20378;-94
2023/10/23 13:12:12;;;;;;;8.90;4.50;;;;;;;;;;6095280;23;20398;-93
2023/10/23 13:22:29;;;;;;;3.90;3.53;;;;;;;;;;6263955;22;20437;-94
2023/10/23 13:24:56;;;;;;;5.43;4.00;;;;;;;;;;6240984;23;20365;-95
2023/10/23 13:27:31;;;;;;;5.30;3.00;;;;;;;;;;6211104;23;20370;-94
2023/10/23 13:37:46;;;;;;;4.43;3.57;;;;;;;;;;6237641;23;20415;-94
2023/10/23 13:40:14;;;;;;;7.13;4.43;;;;;;;;;;6213236;23;20507;-96
2023/10/23 13:42:43;;;;;;;8.40;4.40;;;;;;;;;;6211338;23;20367;-95
2023/10/23 13:45:12;;;;;;;10.10;4.23;;;;;;;;;;6187334;23;20395;-94
2023/10/23 13:47:42;;;;;;;9.07;4.57;;;;;;;;;;6121929;23;20377;-95
2023/10/23 13:50:09;;;;;;;5.40;4.00;;;;;;;;;;6090819;23;20472;-92
2023/10/23 13:52:35;;;;;;;9.13;4.40;;;;;;;;;;6082542;23;20384;-92
2023/10/23 13:55:02;;;;;;;11.87;4.90;;;;;;;;;;6064357;23;21029;-93
2023/10/23 13:57:28;;;;;;;8.87;5.63;;;;;;;;;;6085245;23;20382;-93
2023/10/23 13:59:54;;;;;;;7.70;4.63;;;;;;;;;;6087816;23;20418;-94
2023/10/23 14:02:20;;;;;;;8.03;3.93;;;;;;;;;;6083647;23;20744;-92
2023/10/23 14:04:46;;;;;;;8.70;5.00;;;;;;;;;;6093738;23;20370;-93
2023/10/23 14:07:12;;;;;;;7.80;3.93;;;;;;;;;;6088112;23;20465;-92
2023/10/23 14:09:39;;;;;;;7.17;4.90;;;;;;;;;;6083781;23;20389;-94
2023/10/23 14:12:08;;;;;;;5.83;4.27;;;;;;;;;;6086188;23;20378;-93
2023/10/23 14:14:35;;;;;;;4.90;4.00;;;;;;;;;;6110083;23;20468;-93
2023/10/23 14:17:01;;;;;;;13.13;6.10;;;;;;;;;;6085212;23;20386;-93
2023/10/23 14:19:27;;;;;;;12.70;5.20;;;;;;;;;;6166134;23;20455;-93
2023/10/23 14:21:53;;;;;;;4.73;3.63;;;;;;;;;;6110318;23;20413;-93
2023/10/23 14:24:21;;;;;;;7.67;4.53;;;;;;;;;;6114380;23;20397;-93
2023/10/23 14:26:47;;;;;;;5.80;4.30;;;;;;;;;;6112245;23;20390;-93
2023/10/23 14:29:13;;;;;;;5.60;3.90;;;;;;;;;;6138445;23;20374;-93
2023/10/23 14:31:39;;;;;;;6.63;3.90;;;;;;;;;;6107941;23;20481;-92
2023/10/23 14:34:05;;;;;;;6.77;4.50;;;;;;;;;;6113399;23;20840;-91
2023/10/23 14:36:31;;;;;;;4.57;3.90;;;;;;;;;;6109466;23;20417;-91
2023/10/23 14:38:57;;;;;;;8.03;4.43;;;;;;;;;;6094321;23;20354;-92
2023/10/23 14:41:23;;;;;;;6.53;3.80;;;;;;;;;;6087924;23;20378;-91
2023/10/23 14:43:51;;;;;;;11.73;3.43;;;;;;;;;;6087402;23;20444;-93
2023/10/23 14:46:17;;;;;;;5.40;3.40;;;;;;;;;;6114138;23;20393;-92
2023/10/23 14:48:46;;;;;;;4.37;3.40;;;;;;;;;;6083385;23;20393;-91
2023/10/23 14:51:13;;;;;;;4.93;3.77;;;;;;;;;;6088018;23;20413;-91
2023/10/23 14:53:38;;;;;;;5.13;3.37;;;;;;;;;;6136042;23;20446;-92
2023/10/23 14:56:08;;;;;;;4.50;3.77;;;;;;;;;;6171423;23;20380;-92
2023/10/23 14:58:34;;;;;;;7.10;4.60;;;;;;;;;;6167786;23;20371;-92
2023/10/23 15:01:00;;;;;;;4.57;3.70;;;;;;;;;;6171532;23;20384;-91
2023/10/23 15:03:26;;;;;;;5.90;3.73;;;;;;;;;;6169033;23;20387;-92
2023/10/23 15:05:53;;;;;;;10.87;3.70;;;;;;;;;;6195254;23;20459;-92
2023/10/23 15:08:19;;;;;;;6.30;3.20;;;;;;;;;;6170905;23;20487;-94
2023/10/23 15:10:46;;;;;;;5.37;3.07;;;;;;;;;;6205001;23;20510;-94
2023/10/23 15:13:12;;;;;;;5.47;4.80;;;;;;;;;;6174160;23;20856;-93
2023/10/23 15:15:39;;;;;;;14.70;4.67;;;;;;;;;;6176079;23;20455;-93
2023/10/23 15:18:08;;;;;;;8.03;4.13;;;;;;;;;;6174870;23;20391;-94
2023/10/23 15:20:39;;;;;;;11.37;5.77;;;;;;;;;;6175075;23;20403;-92
2023/10/23 15:23:06;;;;;;;10.17;7.53;;;;;;;;;;6175099;23;20371;-94
2023/10/23 15:25:32;;;;;;;10.03;8.53;;;;;;;;;;6144155;23;20388;-93
2023/10/23 15:27:58;;;;;;;8.80;7.00;;;;;;;;;;6122107;23;20479;-93
2023/10/23 15:30:24;;;;;;;9.90;6.30;;;;;;;;;;6118110;23;20420;-94
2023/10/23 15:32:51;;;;;;;8.20;4.43;;;;;;;;;;6124640;23;20365;-93
2023/10/23 15:35:17;;;;;;;29.80;25.33;;;;;;;;;;6117641;23;20392;-94
2023/10/23 15:37:43;;;;;;;10.40;5.20;;;;;;;;;;6121760;23;20396;-94
2023/10/23 15:40:12;;;;;;;15.47;11.37;;;;;;;;;;6118400;23;20428;-94
2023/10/23 15:42:50;;;;;;;8.23;5.93;;;;;;;;;;6121819;23;20429;-92
2023/10/23 15:45:16;;;;;;;8.33;4.80;;;;;;;;;;6119983;23;20423;-89
2023/10/23 15:47:42;;;;;;;7.20;5.37;;;;;;;;;;6111091;23;20385;-90
2023/10/23 15:50:09;;;;;;;7.30;6.60;;;;;;;;;;6141503;23;20408;-92